Time;durP1;ratioP1;P1;durP2;ratioP2;P2;SDS_P1;SDS_P2;PMS_P1;PMS_P2;Temp;Humidity;BMP_temperature;BMP_pressure;BME280_temperature;BME280_humidity;BME280_pressure;Samples;Min_cycle;Max_cycle;Signal;HPM_P1;HPM_P2
2021/01/11 00:02:21;;;;;;;23.17;13.95;;;-1.10;82.50;;;;;;5069979;28;20041;-62
2021/01/11 00:04:47;;;;;;;25.45;15.60;;;-1.00;82.80;;;;;;5084538;28;20038;-63
2021/01/11 00:07:13;;;;;;;21.90;14.50;;;-1.00;82.30;;;;;;5065747;28;20055;-63
2021/01/11 00:09:38;;;;;;;19.75;13.60;;;-1.00;81.30;;;;;;5068302;28;20143;-62
2021/01/11 00:12:05;;;;;;;22.15;13.07;;;-1.00;81.20;;;;;;5061670;28;20041;-63
2021/01/11 00:14:31;;;;;;;22.45;14.35;;;-1.20;81.40;;;;;;5059744;28;20553;-63
2021/01/11 00:16:57;;;;;;;20.35;12.63;;;-1.10;81.50;;;;;;5054002;28;20029;-63
2021/01/11 00:19:22;;;;;;;24.08;13.73;;;-1.20;81.30;;;;;;5073317;28;20033;-63
2021/01/11 00:21:49;;;;;;;22.95;13.73;;;-1.20;81.40;;;;;;5065995;28;20036;-63
2021/01/11 00:24:15;;;;;;;23.92;12.88;;;-1.10;81.00;;;;;;5065946;28;20037;-63
2021/01/11 00:26:47;;;;;;;20.92;13.73;;;-1.00;80.90;;;;;;5072387;28;20040;-62
2021/01/11 00:29:13;;;;;;;22.00;13.93;;;-1.00;80.80;;;;;;5056390;28;20036;-63
2021/01/11 00:31:38;;;;;;;21.55;13.07;;;-1.00;80.50;;;;;;5062002;28;20541;-63
2021/01/11 00:34:04;;;;;;;20.67;12.68;;;-1.10;80.90;;;;;;5070652;28;20555;-62
2021/01/11 00:36:29;;;;;;;19.05;12.73;;;-1.10;80.40;;;;;;5052776;28;20045;-60
2021/01/11 00:38:55;;;;;;;19.33;11.80;;;-1.10;80.50;;;;;;5053198;28;20041;-62
2021/01/11 00:41:23;;;;;;;19.08;12.60;;;-1.20;80.40;;;;;;5042674;28;20037;-62
2021/01/11 00:43:49;;;;;;;20.48;12.43;;;-1.20;80.30;;;;;;5034616;28;20040;-59
2021/01/11 00:46:24;;;;;;;22.25;14.13;;;-1.20;80.80;;;;;;5053028;28;20040;-62
2021/01/11 00:48:50;;;;;;;23.58;14.18;;;-1.10;80.70;;;;;;5062431;28;20513;-63
2021/01/11 00:51:16;;;;;;;18.00;11.65;;;-1.10;80.10;;;;;;5072088;28;20040;-62
2021/01/11 00:53:44;;;;;;;18.88;12.00;;;-1.00;79.70;;;;;;5070887;28;20054;-63
2021/01/11 00:56:11;;;;;;;20.17;12.52;;;-0.90;81.40;;;;;;5037079;28;20037;-63
2021/01/11 00:58:37;;;;;;;18.98;12.40;;;-1.10;80.20;;;;;;5052953;28;20032;-61
2021/01/11 01:01:02;;;;;;;19.63;12.60;;;-1.10;80.50;;;;;;5046033;28;20432;-55
2021/01/11 01:03:28;;;;;;;19.58;12.57;;;-1.20;81.20;;;;;;5066837;28;20484;-59
2021/01/11 01:05:53;;;;;;;21.35;12.93;;;-1.30;81.50;;;;;;5060358;28;20044;-59
2021/01/11 01:08:19;;;;;;;20.38;12.23;;;-1.20;81.40;;;;;;5053222;28;20043;-65
2021/01/11 01:10:44;;;;;;;20.85;12.82;;;-1.10;80.50;;;;;;5053863;28;20061;-59
2021/01/11 01:13:11;;;;;;;18.85;11.85;;;-1.30;80.90;;;;;;5062797;28;20056;-63
2021/01/11 01:15:37;;;;;;;19.30;12.90;;;-1.30;80.70;;;;;;5061047;28;20028;-59
2021/01/11 01:18:02;;;;;;;18.52;11.68;;;-1.30;80.80;;;;;;5060000;28;20111;-59
2021/01/11 01:20:28;;;;;;;18.50;11.98;;;-1.30;80.30;;;;;;5067938;28;20087;-58
2021/01/11 01:22:54;;;;;;;19.83;12.13;;;-1.40;81.10;;;;;;5053401;28;20041;-61
2021/01/11 01:25:19;;;;;;;19.52;13.02;;;-1.50;81.00;;;;;;5061218;28;20531;-61
2021/01/11 01:27:45;;;;;;;19.25;12.15;;;-1.40;81.10;;;;;;5055531;28;20033;-60
2021/01/11 01:30:12;;;;;;;19.90;11.77;;;-1.40;80.50;;;;;;5077198;28;20036;-61
2021/01/11 01:32:38;;;;;;;17.70;11.65;;;-1.40;80.50;;;;;;5060680;28;20043;-61
2021/01/11 01:35:05;;;;;;;16.33;10.85;;;-1.40;80.60;;;;;;5072506;28;20032;-61
2021/01/11 01:37:30;;;;;;;16.08;10.80;;;-1.40;80.50;;;;;;5061667;28;20159;-61
2021/01/11 01:39:56;;;;;;;18.25;10.98;;;-1.40;79.30;;;;;;5071920;28;20520;-61
2021/01/11 01:42:21;;;;;;;18.70;10.88;;;-1.30;79.20;;;;;;5058329;28;20555;-61
2021/01/11 01:44:47;;;;;;;15.90;10.45;;;-1.30;79.10;;;;;;5056788;28;20040;-61
2021/01/11 01:47:13;;;;;;;15.52;10.20;;;-1.30;79.10;;;;;;5063195;28;20033;-61
2021/01/11 01:49:39;;;;;;;17.45;11.75;;;-1.20;79.00;;;;;;5068143;28;20040;-61
2021/01/11 01:52:07;;;;;;;16.58;10.07;;;-1.20;78.40;;;;;;5055426;28;20468;-59
2021/01/11 01:54:34;;;;;;;16.05;9.88;;;-1.20;78.00;;;;;;5050976;28;20044;-61
2021/01/11 01:57:00;;;;;;;14.52;9.63;;;-1.30;78.10;;;;;;5055094;28;20040;-61
2021/01/11 01:59:27;;;;;;;14.38;9.85;;;-1.30;78.60;;;;;;5051646;28;20127;-61
2021/01/11 02:01:54;;;;;;;15.68;8.90;;;-1.30;78.10;;;;;;5052966;28;20082;-61
2021/01/11 02:04:19;;;;;;;15.38;9.15;;;-1.40;78.30;;;;;;5062406;28;20037;-61
2021/01/11 02:06:51;;;;;;;14.20;9.35;;;-1.40;78.40;;;;;;5058077;28;20372;-60
2021/01/11 02:09:39;;;;;;;14.48;8.90;;;-1.30;77.80;;;;;;5060542;28;20042;-61
2021/01/11 02:12:21;;;;;;;15.98;9.68;;;-1.40;77.60;;;;;;5070185;28;20056;-61
2021/01/11 02:15:14;;;;;;;13.70;8.52;;;-1.40;78.20;;;;;;5063077;28;20036;-60
2021/01/11 02:17:45;;;;;;;15.93;9.18;;;-1.50;78.10;;;;;;5051680;28;20045;-61
2021/01/11 02:20:33;;;;;;;12.05;8.73;;;-1.60;78.30;;;;;;5051008;28;20171;-60
2021/01/11 02:23:08;;;;;;;13.80;9.25;;;-1.60;78.30;;;;;;5075418;28;20119;-61
2021/01/11 02:26:13;;;;;;;13.70;9.13;;;-1.50;78.40;;;;;;5065774;28;20465;-61
2021/01/11 02:28:59;;;;;;;13.45;8.38;;;-1.40;77.60;;;;;;5068279;28;20043;-60
2021/01/11 02:31:26;;;;;;;13.35;8.45;;;-1.30;77.40;;;;;;5075156;28;20024;-61
2021/01/11 02:33:55;;;;;;;13.13;8.18;;;-1.30;77.20;;;;;;5074032;28;20036;-61
2021/01/11 02:36:22;;;;;;;12.98;8.35;;;-1.20;77.20;;;;;;5075049;28;20049;-60
2021/01/11 02:38:53;;;;;;;13.40;8.18;;;-1.20;76.80;;;;;;5062596;28;20171;-59
2021/01/11 02:41:19;;;;;;;13.13;8.23;;;-1.20;76.50;;;;;;5041586;28;20108;-60
2021/01/11 02:43:44;;;;;;;15.98;8.30;;;-1.20;76.30;;;;;;5074622;28;20124;-62
2021/01/11 02:46:10;;;;;;;11.57;7.60;;;-1.10;76.70;;;;;;5073473;28;20033;-60
2021/01/11 02:48:52;;;;;;;10.18;7.10;;;-1.10;76.70;;;;;;5062722;28;20043;-60
2021/01/11 02:51:41;;;;;;;11.25;7.88;;;-1.10;76.60;;;;;;5072974;28;20028;-58
2021/01/11 02:54:20;;;;;;;11.68;8.10;;;-1.20;76.80;;;;;;5054932;28;20102;-61
2021/01/11 02:57:14;;;;;;;11.82;8.15;;;-1.10;76.50;;;;;;5054998;28;20430;-60
2021/01/11 02:59:51;;;;;;;11.55;7.00;;;-1.10;76.90;;;;;;5034874;28;20037;-63
2021/01/11 03:02:18;;;;;;;11.45;7.35;;;-1.00;76.70;;;;;;5037813;28;20028;-66
2021/01/11 03:04:44;;;;;;;11.80;7.25;;;-1.00;76.30;;;;;;5057513;28;20064;-65
2021/01/11 03:07:11;;;;;;;10.27;6.25;;;-1.10;76.80;;;;;;5057159;28;20091;-66
2021/01/11 03:09:41;;;;;;;9.93;7.32;;;-1.00;76.70;;;;;;5057482;28;20043;-65
2021/01/11 03:12:10;;;;;;;10.18;6.88;;;-1.10;77.00;;;;;;5063282;28;20028;-66
2021/01/11 03:14:36;;;;;;;10.80;7.20;;;-1.00;76.90;;;;;;5079354;28;20040;-63
2021/01/11 03:17:02;;;;;;;10.60;7.53;;;-1.00;77.30;;;;;;5079769;28;20036;-65
2021/01/11 03:19:28;;;;;;;10.45;6.60;;;-0.90;77.00;;;;;;5053735;28;20032;-66
2021/01/11 03:21:54;;;;;;;10.68;6.97;;;-0.90;76.70;;;;;;5054348;28;20510;-65
2021/01/11 03:24:21;;;;;;;8.90;6.25;;;-0.90;77.10;;;;;;5054334;28;20032;-65
2021/01/11 03:26:48;;;;;;;11.10;7.28;;;-0.90;76.90;;;;;;5055298;28;20037;-65
2021/01/11 03:29:15;;;;;;;9.45;7.05;;;-0.80;77.10;;;;;;5058893;28;20124;-66
2021/01/11 03:31:41;;;;;;;10.60;6.30;;;-0.80;77.00;;;;;;5063947;28;20041;-64
2021/01/11 03:34:08;;;;;;;12.00;7.53;;;-0.70;77.20;;;;;;5073452;28;20117;-64
2021/01/11 03:36:35;;;;;;;9.77;7.00;;;-0.60;76.60;;;;;;5066309;28;20385;-61
2021/01/11 03:39:02;;;;;;;9.27;6.70;;;-0.60;76.70;;;;;;5056110;28;20071;-62
2021/01/11 03:41:28;;;;;;;10.05;6.75;;;-0.70;76.70;;;;;;5062955;28;20040;-62
2021/01/11 03:43:53;;;;;;;8.55;7.03;;;-0.60;77.20;;;;;;5060463;28;20052;-64
2021/01/11 03:46:19;;;;;;;11.18;6.95;;;-0.60;77.20;;;;;;5073565;28;20032;-62
2021/01/11 03:48:45;;;;;;;10.90;7.50;;;-0.50;77.00;;;;;;5071806;28;20094;-62
2021/01/11 03:51:13;;;;;;;10.57;7.47;;;-0.60;77.30;;;;;;5057712;28;20032;-62
2021/01/11 03:53:39;;;;;;;11.02;7.28;;;-0.60;77.80;;;;;;5063764;28;20037;-62
2021/01/11 03:56:08;;;;;;;12.52;7.63;;;-0.60;77.50;;;;;;5065021;28;20043;-62
2021/01/11 03:58:35;;;;;;;10.40;7.30;;;-0.50;77.40;;;;;;5056613;28;20025;-62
2021/01/11 04:01:00;;;;;;;12.30;8.02;;;-0.50;77.50;;;;;;5066439;28;20044;-62
2021/01/11 04:03:26;;;;;;;12.43;7.25;;;-0.50;77.60;;;;;;5072071;28;20033;-62
2021/01/11 04:05:53;;;;;;;11.32;7.70;;;-0.40;77.00;;;;;;5073410;28;20059;-62
2021/01/11 04:08:19;;;;;;;11.27;7.55;;;-0.40;77.10;;;;;;5061045;28;20085;-62
2021/01/11 04:10:45;;;;;;;12.65;8.10;;;-0.30;77.20;;;;;;5071192;28;20052;-63
2021/01/11 04:13:10;;;;;;;12.20;7.68;;;-0.30;76.90;;;;;;5067093;28;20041;-61
2021/01/11 04:15:36;;;;;;;10.85;7.95;;;-0.20;76.70;;;;;;5065004;28;20068;-62
2021/01/11 04:18:02;;;;;;;11.02;8.13;;;-0.20;77.10;;;;;;5056695;28;20040;-61
2021/01/11 04:20:40;;;;;;;10.15;7.57;;;-0.20;77.20;;;;;;5036636;28;20134;-61
2021/01/11 04:23:16;;;;;;;9.85;6.85;;;-0.20;77.20;;;;;;5062782;28;20427;-61
2021/01/11 04:25:42;;;;;;;10.43;7.13;;;-0.20;77.10;;;;;;5060274;28;20036;-61
2021/01/11 04:28:07;;;;;;;9.68;7.50;;;-0.10;77.20;;;;;;5047992;28;20056;-59
2021/01/11 04:30:33;;;;;;;9.70;6.72;;;-0.10;77.20;;;;;;5072526;28;20037;-63
2021/01/11 04:32:58;;;;;;;10.60;6.60;;;-0.10;77.20;;;;;;5056189;28;20779;-63
2021/01/11 04:35:26;;;;;;;13.43;6.70;;;-0.10;77.10;;;;;;5054250;28;20029;-61
2021/01/11 04:37:52;;;;;;;9.68;6.80;;;-0.10;77.00;;;;;;5070249;28;20482;-64
2021/01/11 04:40:18;;;;;;;9.85;6.60;;;0.00;76.70;;;;;;5073087;28;20175;-64
2021/01/11 04:43:16;;;;;;;8.13;5.82;;;0.00;76.50;;;;;;5057905;28;20045;-63
2021/01/11 04:45:43;;;;;;;9.68;6.10;;;0.10;76.50;;;;;;5052782;28;20610;-63
2021/01/11 04:48:11;;;;;;;8.80;6.20;;;0.10;76.40;;;;;;5051842;28;20029;-63
2021/01/11 04:50:37;;;;;;;10.00;6.55;;;0.10;76.20;;;;;;5065096;28;20041;-65
2021/01/11 04:53:12;;;;;;;9.93;6.00;;;0.10;76.40;;;;;;5059355;28;20040;-64
2021/01/11 04:55:39;;;;;;;10.60;6.70;;;0.10;76.20;;;;;;5063476;28;20506;-64
2021/01/11 04:58:09;;;;;;;9.75;6.32;;;0.20;76.60;;;;;;5061459;28;20037;-64
2021/01/11 05:00:37;;;;;;;10.32;7.07;;;0.20;76.60;;;;;;5052834;28;20080;-64
2021/01/11 05:03:05;;;;;;;9.13;5.95;;;0.20;76.10;;;;;;5062714;28;20041;-64
2021/01/11 05:05:34;;;;;;;8.05;6.00;;;0.20;76.30;;;;;;5072356;28;20047;-64
2021/01/11 05:08:00;;;;;;;9.35;6.47;;;0.30;75.70;;;;;;5072291;28;20033;-64
2021/01/11 05:10:28;;;;;;;7.80;5.50;;;0.30;76.00;;;;;;5071415;28;20040;-63
2021/01/11 05:12:56;;;;;;;9.55;6.20;;;0.30;75.90;;;;;;5057813;28;20032;-64
2021/01/11 05:15:22;;;;;;;8.20;6.05;;;0.30;75.90;;;;;;5056807;28;20124;-63
2021/01/11 05:17:48;;;;;;;9.63;6.25;;;0.30;75.90;;;;;;5072517;28;20063;-63
2021/01/11 05:20:17;;;;;;;9.35;6.10;;;0.40;75.80;;;;;;5052797;28;20403;-64
2021/01/11 05:22:49;;;;;;;8.25;5.85;;;0.40;76.10;;;;;;5065558;28;20056;-64
2021/01/11 05:25:19;;;;;;;9.13;5.97;;;0.40;76.20;;;;;;5042340;28;20037;-62
2021/01/11 05:27:47;;;;;;;9.18;6.30;;;0.40;76.10;;;;;;5072163;28;20028;-63
2021/01/11 05:30:30;;;;;;;8.15;5.40;;;0.40;75.70;;;;;;5065407;28;20047;-63
2021/01/11 05:32:56;;;;;;;8.98;5.65;;;0.40;75.90;;;;;;5052341;28;20463;-63
2021/01/11 05:35:22;;;;;;;7.15;5.10;;;0.40;75.60;;;;;;5059442;28;20060;-64
2021/01/11 05:37:48;;;;;;;8.60;6.22;;;0.40;75.30;;;;;;5071019;28;20452;-64
2021/01/11 05:40:16;;;;;;;8.73;6.63;;;0.40;75.80;;;;;;5052287;28;20037;-64
2021/01/11 05:42:47;;;;;;;7.75;5.60;;;0.50;74.90;;;;;;5051983;28;20041;-64
2021/01/11 05:45:16;;;;;;;9.45;5.82;;;0.50;74.80;;;;;;5051904;28;20031;-64
2021/01/11 05:48:04;;;;;;;8.23;6.15;;;0.40;74.80;;;;;;5064497;28;20451;-64
2021/01/11 05:50:40;;;;;;;9.00;5.70;;;0.50;74.90;;;;;;5051989;28;20044;-63
2021/01/11 05:53:14;;;;;;;8.35;5.95;;;0.40;74.90;;;;;;5066133;28;20503;-64
2021/01/11 05:55:40;;;;;;;8.55;5.55;;;0.50;74.60;;;;;;5071157;28;20036;-64
2021/01/11 05:58:05;;;;;;;7.47;5.60;;;0.50;74.50;;;;;;5070306;28;20044;-64
2021/01/11 06:00:33;;;;;;;10.00;6.15;;;0.50;74.30;;;;;;5072012;28;20418;-63
2021/01/11 06:02:59;;;;;;;8.55;5.72;;;0.50;74.20;;;;;;5057208;28;20037;-63
2021/01/11 06:05:26;;;;;;;8.32;6.13;;;0.50;74.30;;;;;;5070563;28;20024;-60
2021/01/11 06:07:52;;;;;;;9.95;6.20;;;0.60;73.60;;;;;;5052014;28;20045;-61
2021/01/11 06:10:19;;;;;;;9.32;6.80;;;0.60;73.90;;;;;;5051706;28;20120;-60
2021/01/11 06:12:46;;;;;;;7.63;5.90;;;0.60;74.00;;;;;;5057406;28;20087;-61
2021/01/11 06:15:17;;;;;;;9.50;6.68;;;0.60;74.10;;;;;;5051852;28;20100;-62
2021/01/11 06:17:45;;;;;;;9.00;6.13;;;0.60;73.60;;;;;;5064647;28;20043;-61
2021/01/11 06:20:15;;;;;;;8.23;6.22;;;0.60;73.70;;;;;;5061573;28;20041;-62
2021/01/11 06:22:44;;;;;;;10.30;6.60;;;0.60;73.50;;;;;;5036883;28;20056;-62
2021/01/11 06:25:18;;;;;;;9.18;6.68;;;0.60;73.70;;;;;;5063510;28;20120;-62
2021/01/11 06:28:03;;;;;;;8.32;5.75;;;0.70;73.50;;;;;;5055629;28;20021;-61
2021/01/11 06:30:37;;;;;;;8.38;6.13;;;0.70;73.20;;;;;;5070333;28;20059;-62
2021/01/11 06:33:07;;;;;;;8.70;5.57;;;0.60;73.00;;;;;;5052361;28;20108;-62
2021/01/11 06:35:40;;;;;;;9.25;6.10;;;0.70;73.50;;;;;;5053491;28;20438;-63
2021/01/11 06:38:25;;;;;;;7.78;5.70;;;0.60;72.80;;;;;;5048112;28;20036;-63
2021/01/11 06:41:03;;;;;;;8.93;5.65;;;0.60;72.70;;;;;;5052029;28;20367;-62
2021/01/11 06:43:50;;;;;;;8.82;6.63;;;0.60;73.10;;;;;;5060016;28;20044;-62
2021/01/11 06:46:24;;;;;;;9.10;6.00;;;0.60;73.10;;;;;;5054595;28;20048;-61
2021/01/11 06:48:53;;;;;;;7.57;5.30;;;0.60;73.30;;;;;;5062076;28;20044;-61
2021/01/11 06:51:19;;;;;;;7.65;6.13;;;0.60;73.40;;;;;;5053462;28;20040;-63
2021/01/11 06:53:44;;;;;;;9.52;6.18;;;0.60;72.80;;;;;;5060679;28;20033;-61
2021/01/11 06:56:11;;;;;;;8.45;6.05;;;0.60;73.20;;;;;;5071330;28;20040;-62
2021/01/11 06:58:39;;;;;;;9.85;5.97;;;0.70;73.00;;;;;;5063861;28;20045;-63
2021/01/11 07:01:08;;;;;;;8.35;6.05;;;0.70;72.60;;;;;;5033351;28;20033;-63
2021/01/11 07:03:47;;;;;;;9.07;6.32;;;0.60;72.90;;;;;;5059523;28;20388;-62
2021/01/11 07:06:38;;;;;;;10.10;5.85;;;0.60;73.00;;;;;;5073048;28;20028;-62
2021/01/11 07:09:18;;;;;;;8.50;5.57;;;0.60;73.00;;;;;;5061097;28;20392;-62
2021/01/11 07:11:44;;;;;;;7.95;5.55;;;0.60;72.90;;;;;;5054991;28;20029;-61
2021/01/11 07:14:12;;;;;;;8.88;5.82;;;0.60;73.00;;;;;;5066058;28;20025;-62
2021/01/11 07:16:44;;;;;;;9.00;5.55;;;0.60;73.40;;;;;;5056863;28;20036;-62
2021/01/11 07:19:13;;;;;;;9.35;5.82;;;0.70;73.10;;;;;;5056128;28;20098;-62
2021/01/11 07:21:40;;;;;;;9.10;6.43;;;0.60;72.90;;;;;;5062889;28;20489;-62
2021/01/11 07:24:06;;;;;;;8.40;6.10;;;0.60;73.10;;;;;;5073996;28;20027;-62
2021/01/11 07:26:33;;;;;;;9.68;5.90;;;0.50;73.50;;;;;;5066862;28;20037;-62
2021/01/11 07:29:19;;;;;;;9.15;5.68;;;0.50;73.70;;;;;;5054475;28;20396;-62
2021/01/11 07:31:46;;;;;;;8.20;5.53;;;0.50;73.80;;;;;;5058861;28;20103;-62
2021/01/11 07:34:16;;;;;;;9.73;6.28;;;0.50;73.90;;;;;;5036272;28;20090;-62
2021/01/11 07:36:49;;;;;;;11.02;6.20;;;0.40;73.50;;;;;;5067054;28;20067;-61
2021/01/11 07:39:14;;;;;;;7.80;5.82;;;0.50;74.00;;;;;;5074248;28;20487;-62
2021/01/11 07:41:43;;;;;;;9.73;6.13;;;0.50;73.70;;;;;;5061777;28;20052;-62
2021/01/11 07:44:20;;;;;;;9.55;6.70;;;0.50;74.30;;;;;;5035771;28;20496;-62
2021/01/11 07:46:56;;;;;;;9.55;6.55;;;0.60;73.30;;;;;;5036333;28;20075;-63
2021/01/11 07:49:21;;;;;;;8.75;6.10;;;0.50;73.80;;;;;;5050882;28;20032;-61
2021/01/11 07:51:49;;;;;;;10.95;6.88;;;0.60;73.20;;;;;;5073632;28;20560;-63
2021/01/11 07:54:20;;;;;;;7.82;5.53;;;0.60;73.40;;;;;;5070998;28;20498;-61
2021/01/11 07:56:47;;;;;;;9.48;6.68;;;0.60;73.20;;;;;;5054250;28;20064;-62
2021/01/11 07:59:14;;;;;;;11.52;6.50;;;0.60;72.80;;;;;;5055393;28;20071;-62
2021/01/11 08:01:41;;;;;;;9.38;5.80;;;0.60;72.60;;;;;;5064466;28;20047;-61
2021/01/11 08:04:09;;;;;;;8.98;5.85;;;0.60;72.60;;;;;;5070588;28;20399;-60
2021/01/11 08:06:56;;;;;;;9.93;6.45;;;0.60;72.70;;;;;;5039277;28;20492;-61
2021/01/11 08:09:27;;;;;;;9.90;6.40;;;0.70;72.30;;;;;;5073622;28;20477;-61
2021/01/11 08:12:05;;;;;;;8.85;6.50;;;0.60;72.10;;;;;;5072637;28;20039;-61
2021/01/11 08:14:31;;;;;;;9.52;6.55;;;0.60;72.30;;;;;;5073135;28;20059;-61
2021/01/11 08:17:00;;;;;;;8.25;6.00;;;0.70;72.30;;;;;;5043777;28;20130;-61
2021/01/11 08:19:26;;;;;;;8.88;5.60;;;0.80;71.90;;;;;;5053141;28;20033;-62
2021/01/11 08:21:59;;;;;;;10.75;6.57;;;0.80;71.70;;;;;;5036468;28;20048;-61
2021/01/11 08:24:25;;;;;;;9.80;6.40;;;0.80;71.60;;;;;;5065760;28;20032;-63
2021/01/11 08:27:01;;;;;;;9.13;6.95;;;0.90;71.60;;;;;;5068531;28;20040;-62
2021/01/11 08:29:29;;;;;;;10.07;6.70;;;0.90;71.50;;;;;;5073471;28;20092;-62
2021/01/11 08:31:55;;;;;;;9.35;6.30;;;0.90;71.50;;;;;;5048886;28;20044;-63
2021/01/11 08:34:21;;;;;;;9.32;6.18;;;0.90;71.50;;;;;;5053624;28;20036;-63
2021/01/11 08:36:47;;;;;;;10.85;6.10;;;1.10;70.90;;;;;;5052770;28;20068;-62
2021/01/11 08:39:14;;;;;;;10.20;6.38;;;1.10;71.10;;;;;;5034244;28;20036;-61
2021/01/11 08:41:49;;;;;;;9.10;6.53;;;1.20;71.70;;;;;;5055653;28;20459;-61
2021/01/11 08:44:27;;;;;;;8.20;5.70;;;1.30;70.00;;;;;;5051361;28;20036;-62
2021/01/11 08:47:01;;;;;;;9.32;5.85;;;1.30;70.60;;;;;;5056969;28;20034;-62
2021/01/11 08:49:27;;;;;;;10.87;6.20;;;1.30;70.20;;;;;;5072519;28;20059;-62
2021/01/11 08:51:53;;;;;;;7.63;5.78;;;1.30;70.30;;;;;;5068491;28;20498;-63
2021/01/11 08:54:29;;;;;;;9.02;5.68;;;1.30;70.60;;;;;;5065298;28;20483;-64
2021/01/11 08:56:56;;;;;;;9.52;6.30;;;1.30;70.50;;;;;;5056825;28;20068;-64
2021/01/11 08:59:23;;;;;;;8.05;5.70;;;1.30;70.20;;;;;;5054958;28;20515;-63
2021/01/11 09:01:49;;;;;;;9.05;5.68;;;1.40;70.60;;;;;;5058956;28;20522;-63
2021/01/11 09:04:33;;;;;;;8.88;5.90;;;1.40;70.50;;;;;;5055358;28;20037;-63
2021/01/11 09:07:00;;;;;;;8.52;5.50;;;1.30;70.00;;;;;;5066703;28;20492;-63
2021/01/11 09:09:28;;;;;;;8.35;6.13;;;1.30;70.70;;;;;;5061255;28;20040;-62
2021/01/11 09:12:06;;;;;;;7.63;5.93;;;1.20;70.60;;;;;;5051987;28;20024;-64
2021/01/11 09:14:33;;;;;;;8.13;6.28;;;1.20;70.60;;;;;;5040235;28;20040;-64
2021/01/11 09:17:01;;;;;;;8.23;5.95;;;1.20;70.60;;;;;;5054538;28;20545;-64
2021/01/11 09:19:30;;;;;;;9.43;6.00;;;1.20;70.40;;;;;;5048350;28;20656;-62
2021/01/11 09:22:15;;;;;;;8.27;5.82;;;1.10;70.70;;;;;;5073120;28;20163;-63
2021/01/11 09:24:42;;;;;;;9.82;5.70;;;1.10;70.80;;;;;;5067511;28;20040;-63
2021/01/11 09:27:08;;;;;;;8.32;5.68;;;1.10;70.90;;;;;;5070053;28;20139;-63
2021/01/11 09:29:34;;;;;;;8.30;5.90;;;1.10;71.10;;;;;;5033317;28;20500;-63
2021/01/11 09:32:00;;;;;;;10.25;6.53;;;1.10;71.40;;;;;;5055051;28;20032;-63
2021/01/11 09:34:25;;;;;;;8.25;5.93;;;1.10;70.80;;;;;;5072089;28;20037;-63
2021/01/11 09:36:51;;;;;;;8.30;6.00;;;1.10;70.40;;;;;;5073105;28;20029;-62
2021/01/11 09:39:19;;;;;;;8.90;6.07;;;1.00;70.70;;;;;;5074253;28;20590;-63
2021/01/11 09:41:50;;;;;;;9.60;6.32;;;1.00;71.00;;;;;;5035343;28;20033;-62
2021/01/11 09:44:16;;;;;;;8.73;6.00;;;1.00;71.00;;;;;;5052627;28;20492;-63
2021/01/11 09:46:50;;;;;;;10.30;6.07;;;1.10;71.10;;;;;;5053656;28;20033;-63
2021/01/11 09:49:16;;;;;;;9.65;6.85;;;1.10;70.80;;;;;;5064504;28;20380;-64
2021/01/11 09:51:42;;;;;;;9.02;6.07;;;1.10;70.60;;;;;;5072302;28;20045;-63
2021/01/11 09:54:08;;;;;;;9.88;6.32;;;1.20;70.90;;;;;;5055151;28;20365;-62
2021/01/11 09:56:38;;;;;;;9.40;5.97;;;1.20;70.80;;;;;;5070778;28;20480;-63
2021/01/11 09:59:07;;;;;;;8.57;6.88;;;1.20;70.60;;;;;;5061536;28;20369;-63
2021/01/11 10:01:47;;;;;;;9.35;6.00;;;1.30;70.80;;;;;;5070113;28;20392;-63
2021/01/11 10:04:17;;;;;;;8.63;5.85;;;1.30;70.90;;;;;;5054851;28;20104;-64
2021/01/11 10:06:44;;;;;;;8.48;6.13;;;1.30;71.00;;;;;;5055659;28;20037;-64
2021/01/11 10:09:11;;;;;;;8.23;5.93;;;1.30;70.80;;;;;;5054348;28;20025;-66
2021/01/11 10:11:37;;;;;;;8.20;6.13;;;1.30;70.90;;;;;;5072263;28;20032;-63
2021/01/11 10:14:03;;;;;;;10.00;6.18;;;1.30;70.50;;;;;;5076671;28;20554;-64
2021/01/11 10:16:29;;;;;;;11.52;6.65;;;1.30;70.60;;;;;;5077853;28;20125;-63
2021/01/11 10:18:55;;;;;;;9.40;6.70;;;1.30;70.60;;;;;;5059451;28;20040;-62
2021/01/11 10:21:21;;;;;;;8.10;6.25;;;1.30;70.70;;;;;;5061744;28;20087;-62
2021/01/11 10:23:46;;;;;;;9.38;6.45;;;1.30;70.90;;;;;;5057735;28;20584;-63
2021/01/11 10:26:17;;;;;;;8.75;6.43;;;1.40;70.70;;;;;;5056548;28;20037;-63
2021/01/11 10:28:46;;;;;;;10.30;7.03;;;1.30;70.30;;;;;;5052530;28;20426;-64
2021/01/11 10:31:12;;;;;;;10.73;6.45;;;1.40;70.40;;;;;;5023789;28;20045;-63
2021/01/11 10:33:38;;;;;;;9.75;6.95;;;1.40;70.30;;;;;;5054263;28;20095;-62
2021/01/11 10:36:05;;;;;;;10.07;6.65;;;1.50;69.50;;;;;;5033646;28;20456;-62
2021/01/11 10:38:30;;;;;;;9.98;7.20;;;1.40;70.60;;;;;;5051912;28;20039;-63
2021/01/11 10:40:56;;;;;;;9.80;6.82;;;1.30;70.20;;;;;;5035590;28;20115;-62
2021/01/11 10:43:22;;;;;;;9.57;6.88;;;1.40;69.80;;;;;;5055429;28;20430;-63
2021/01/11 10:45:47;;;;;;;9.88;6.93;;;1.40;70.10;;;;;;5060638;28;20044;-64
2021/01/11 10:48:13;;;;;;;9.57;6.82;;;1.40;70.10;;;;;;5075423;28;20629;-63
2021/01/11 10:50:39;;;;;;;9.95;6.65;;;1.40;69.50;;;;;;5073052;28;20388;-63
2021/01/11 10:53:06;;;;;;;11.65;6.95;;;1.30;70.10;;;;;;5038605;28;20037;-64
2021/01/11 10:55:32;;;;;;;9.02;6.43;;;1.20;70.10;;;;;;5057963;28;20081;-64
2021/01/11 10:57:58;;;;;;;10.32;7.40;;;1.20;70.40;;;;;;5076059;28;20135;-63
2021/01/11 11:00:24;;;;;;;11.70;7.63;;;1.20;70.70;;;;;;5063939;28;20118;-64
2021/01/11 11:02:50;;;;;;;10.93;7.10;;;1.20;70.80;;;;;;5040611;28;20036;-64
2021/01/11 11:05:15;;;;;;;9.80;6.75;;;1.30;70.50;;;;;;5075169;28;20066;-64
2021/01/11 11:07:41;;;;;;;10.35;6.53;;;1.20;70.70;;;;;;5074151;28;20032;-63
2021/01/11 11:10:10;;;;;;;9.95;6.70;;;1.30;70.20;;;;;;5058727;28;20032;-62
2021/01/11 11:12:36;;;;;;;11.13;6.90;;;1.30;70.20;;;;;;5040371;28;20045;-64
2021/01/11 11:15:02;;;;;;;11.82;7.18;;;1.20;70.60;;;;;;5029182;28;20029;-64
2021/01/11 11:17:31;;;;;;;10.50;7.53;;;1.30;70.40;;;;;;5037280;28;20099;-65
2021/01/11 11:20:00;;;;;;;9.32;6.78;;;1.30;70.90;;;;;;5066542;28;20399;-63
2021/01/11 11:22:26;;;;;;;10.50;7.55;;;1.40;69.90;;;;;;5074292;28;20035;-65
2021/01/11 11:24:52;;;;;;;9.77;7.10;;;1.40;73.70;;;;;;5068905;28;20048;-64
2021/01/11 11:27:18;;;;;;;12.07;8.38;;;1.50;69.80;;;;;;5074529;28;20479;-65
2021/01/11 11:29:44;;;;;;;11.52;7.45;;;1.50;70.10;;;;;;5073769;28;20040;-63
2021/01/11 11:32:10;;;;;;;10.98;8.30;;;1.50;70.00;;;;;;5072501;28;20029;-63
2021/01/11 11:34:36;;;;;;;11.23;7.35;;;1.50;69.40;;;;;;5051773;28;20174;-63
2021/01/11 11:37:02;;;;;;;11.60;7.43;;;1.50;70.00;;;;;;5057644;28;20041;-63
2021/01/11 11:39:28;;;;;;;12.57;7.78;;;1.50;70.20;;;;;;5057992;28;20055;-64
2021/01/11 11:41:59;;;;;;;10.32;7.50;;;1.50;69.70;;;;;;5069883;28;20112;-63
2021/01/11 11:44:25;;;;;;;12.18;7.50;;;1.50;70.00;;;;;;5046543;28;20033;-63
2021/01/11 11:46:52;;;;;;;11.90;7.43;;;1.60;70.00;;;;;;5068230;28;20040;-64
2021/01/11 11:49:18;;;;;;;13.05;8.00;;;1.60;69.20;;;;;;5074886;28;20074;-64
2021/01/11 11:51:47;;;;;;;10.43;7.13;;;1.60;69.60;;;;;;5073552;28;20045;-64
2021/01/11 11:54:13;;;;;;;13.48;8.50;;;1.60;69.50;;;;;;5074769;28;20082;-64
2021/01/11 11:56:42;;;;;;;13.65;7.32;;;1.50;69.60;;;;;;5074931;28;20020;-64
2021/01/11 11:59:09;;;;;;;14.55;7.10;;;1.60;69.70;;;;;;5074321;28;20033;-64
2021/01/11 12:01:36;;;;;;;10.75;7.00;;;1.60;69.60;;;;;;5039920;28;20043;-64
2021/01/11 12:04:02;;;;;;;11.98;7.70;;;1.60;69.70;;;;;;5074781;28;20040;-64
2021/01/11 12:06:39;;;;;;;9.77;7.65;;;1.60;69.70;;;;;;5054681;28;20037;-64
2021/01/11 12:09:06;;;;;;;8.85;7.05;;;1.70;69.60;;;;;;5060544;28;20029;-65
2021/01/11 12:11:45;;;;;;;10.15;6.85;;;1.70;69.30;;;;;;5072469;28;20032;-64
2021/01/11 12:14:11;;;;;;;9.90;6.70;;;1.60;69.10;;;;;;5053652;28;20365;-63
2021/01/11 12:16:37;;;;;;;10.77;6.90;;;1.60;69.60;;;;;;5054920;28;20082;-64
2021/01/11 12:19:05;;;;;;;10.88;7.10;;;1.60;69.60;;;;;;5066939;28;20036;-64
2021/01/11 12:21:33;;;;;;;10.00;6.97;;;1.70;69.10;;;;;;5072952;28;20456;-64
2021/01/11 12:23:59;;;;;;;11.02;7.40;;;1.70;69.50;;;;;;5044449;28;20045;-63
2021/01/11 12:26:25;;;;;;;10.00;7.32;;;1.60;69.60;;;;;;5064295;28;20033;-65
2021/01/11 12:28:50;;;;;;;9.70;6.60;;;1.50;70.50;;;;;;5063185;28;20047;-64
2021/01/11 12:31:16;;;;;;;12.77;7.70;;;1.50;71.30;;;;;;5044331;28;20037;-65
2021/01/11 12:33:44;;;;;;;10.48;7.22;;;1.50;71.60;;;;;;5062379;28;20041;-64
2021/01/11 12:36:10;;;;;;;10.25;6.88;;;1.50;71.30;;;;;;5057516;28;20503;-63
2021/01/11 12:38:35;;;;;;;12.50;7.75;;;1.50;70.80;;;;;;5041930;28;20041;-64
2021/01/11 12:41:01;;;;;;;10.68;7.43;;;1.60;70.50;;;;;;5063605;28;20040;-64
2021/01/11 12:43:29;;;;;;;11.13;7.63;;;1.60;70.30;;;;;;5061137;28;20040;-63
2021/01/11 12:45:54;;;;;;;12.40;8.55;;;1.60;70.30;;;;;;5054514;28;20598;-63
2021/01/11 12:48:20;;;;;;;13.23;7.53;;;1.70;70.30;;;;;;5070543;28;20119;-61
2021/01/11 12:50:45;;;;;;;12.70;8.05;;;1.70;70.20;;;;;;5072350;28;20064;-63
2021/01/11 12:53:11;;;;;;;11.63;7.45;;;1.70;69.60;;;;;;5070561;28;20044;-64
2021/01/11 12:55:36;;;;;;;12.82;7.22;;;1.80;69.80;;;;;;5072591;28;20478;-63